Time;durP1;ratioP1;P1;durP2;ratioP2;P2;SDS_P1;SDS_P2;PMS_P1;PMS_P2;Temp;Humidity;BMP_temperature;BMP_pressure;BME280_temperature;BME280_humidity;BME280_pressure;Samples;Min_cycle;Max_cycle;Signal;HPM_P1;HPM_P2
2022/11/13 00:01:08;;;;;;;33.65;14.90;;;;;;;9.72;100.00;98518.94;5006542;28;20053;-55
2022/11/13 00:03:34;;;;;;;17.88;11.70;;;;;;;9.10;100.00;98466.00;5006885;28;20053;-63
2022/11/13 00:06:02;;;;;;;48.45;15.48;;;;;;;8.67;100.00;98465.16;5006840;28;20137;-54
2022/11/13 00:08:28;;;;;;;15.18;8.55;;;;;;;8.65;100.00;98525.44;5006242;28;20128;-54
2022/11/13 00:11:21;;;;;;;18.00;10.13;;;;;;;8.57;100.00;98515.16;5006524;28;20523;-55
2022/11/13 00:13:48;;;;;;;37.97;15.48;;;;;;;8.55;100.00;98517.47;5004694;28;20516;-56
2022/11/13 00:16:18;;;;;;;59.25;20.55;;;;;;;8.50;100.00;98515.66;5006711;28;20056;-54
2022/11/13 00:18:45;;;;;;;37.28;17.30;;;;;;;8.78;100.00;98511.50;5006103;28;20528;-54
2022/11/13 00:21:13;;;;;;;26.27;13.02;;;;;;;8.94;100.00;98509.06;5005558;28;20061;-63
2022/11/13 00:23:41;;;;;;;28.77;15.60;;;;;;;8.98;100.00;98502.56;5006333;28;20060;-63
2022/11/13 00:26:16;;;;;;;26.77;15.27;;;;;;;9.01;100.00;98492.81;5006206;28;20144;-57
2022/11/13 00:28:44;;;;;;;24.67;13.27;;;;;;;9.05;100.00;98496.56;5006278;28;20124;-55
2022/11/13 00:31:13;;;;;;;27.98;17.83;;;;;;;9.20;100.00;98507.13;5005838;28;20155;-55
2022/11/13 00:33:40;;;;;;;28.50;14.52;;;;;;;9.26;100.00;98508.59;5004456;28;20164;-55
2022/11/13 00:36:27;;;;;;;22.33;14.23;;;;;;;9.31;100.00;98505.63;5005858;28;20053;-54
2022/11/13 00:38:55;;;;;;;20.85;12.63;;;;;;;9.35;100.00;98505.81;5004715;28;20602;-54
2022/11/13 00:41:22;;;;;;;20.60;11.98;;;;;;;9.37;100.00;98503.53;5006060;28;20050;-57
2022/11/13 00:43:49;;;;;;;20.90;12.02;;;;;;;9.24;100.00;98474.94;5004578;28;20084;-63
2022/11/13 00:46:16;;;;;;;19.73;11.65;;;;;;;8.73;100.00;98381.81;5005582;28;20136;-63
2022/11/13 00:48:43;;;;;;;19.58;11.05;;;;;;;9.48;100.00;98496.53;5005693;28;20073;-63
2022/11/13 00:51:10;;;;;;;22.52;13.00;;;;;;;9.65;100.00;98505.63;5005565;28;20084;-63
2022/11/13 00:53:36;;;;;;;15.90;9.70;;;;;;;9.71;100.00;98501.53;5005396;28;20140;-57
2022/11/13 00:56:03;;;;;;;17.80;9.82;;;;;;;9.72;100.00;98508.66;5005264;28;20123;-55
2022/11/13 00:58:30;;;;;;;16.92;9.45;;;;;;;9.29;100.00;98440.75;5004347;28;20062;-64
2022/11/13 01:01:06;;;;;;;16.33;9.43;;;;;;;9.77;100.00;98504.94;5003968;28;20065;-54
2022/11/13 01:03:33;;;;;;;26.60;13.65;;;;;;;9.75;100.00;98508.03;5005575;28;20104;-54
2022/11/13 01:06:00;;;;;;;18.15;10.68;;;;;;;9.79;100.00;98514.53;5004199;28;20060;-63
2022/11/13 01:08:27;;;;;;;15.68;9.27;;;;;;;9.74;100.00;98508.34;5005813;28;20086;-63
2022/11/13 01:10:54;;;;;;;14.73;9.07;;;;;;;9.81;100.00;98500.38;5004429;28;20053;-63
2022/11/13 01:13:20;;;;;;;14.60;8.23;;;;;;;9.77;100.00;98502.97;5005360;28;20083;-54
2022/11/13 01:15:47;;;;;;;16.38;10.30;;;;;;;9.66;100.00;98504.47;5005267;28;20096;-63
2022/11/13 01:18:13;;;;;;;18.38;9.95;;;;;;;9.61;100.00;98501.84;5005025;28;20085;-55
2022/11/13 01:20:40;;;;;;;16.88;11.27;;;;;;;9.60;100.00;98500.25;5005290;28;20064;-63
2022/11/13 01:23:07;;;;;;;19.77;12.30;;;;;;;9.48;100.00;98497.34;5005282;28;20140;-55
2022/11/13 01:25:34;;;;;;;24.98;14.52;;;;;;;9.36;100.00;98504.69;5004713;28;20595;-57
2022/11/13 01:28:00;;;;;;;26.00;14.52;;;;;;;9.23;100.00;98504.50;5003993;28;20074;-64
2022/11/13 01:30:27;;;;;;;27.38;14.75;;;;;;;8.60;100.00;98410.38;5004853;28;20137;-63
2022/11/13 01:32:53;;;;;;;20.83;12.32;;;;;;;9.15;100.00;98493.47;5005385;28;20562;-55
2022/11/13 01:35:20;;;;;;;22.90;11.40;;;;;;;8.93;100.00;98479.81;5003572;28;20112;-62
2022/11/13 01:37:47;;;;;;;19.38;12.23;;;;;;;8.57;100.00;98421.25;5004757;28;20586;-63
2022/11/13 01:40:13;;;;;;;18.25;11.38;;;;;;;8.92;100.00;98500.28;5003604;28;20112;-55
2022/11/13 01:42:40;;;;;;;24.55;13.32;;;;;;;8.88;100.00;98493.78;5005181;28;20112;-57
2022/11/13 01:45:44;;;;;;;24.35;12.82;;;;;;;8.79;100.00;98495.72;5005127;28;20085;-55
2022/11/13 01:48:11;;;;;;;23.88;14.05;;;;;;;8.71;100.00;98488.25;5005616;28;20115;-63
2022/11/13 01:50:38;;;;;;;24.08;13.98;;;;;;;8.62;100.00;98490.16;5003825;28;20496;-54
2022/11/13 01:53:06;;;;;;;23.45;12.95;;;;;;;8.60;100.00;98509.03;5005240;28;20173;-55
2022/11/13 01:55:33;;;;;;;25.60;14.93;;;;;;;8.21;100.00;98446.38;5003802;28;20121;-63
2022/11/13 01:58:02;;;;;;;29.98;17.60;;;;;;;8.36;100.00;98481.03;5004965;28;20145;-57
2022/11/13 02:00:29;;;;;;;30.20;17.42;;;;;;;8.36;100.00;98494.84;5007844;28;20050;-62
2022/11/13 02:02:56;;;;;;;25.23;14.45;;;;;;;8.08;100.00;98483.16;5009001;28;20081;-63
2022/11/13 02:05:22;;;;;;;22.98;13.48;;;;;;;8.23;100.00;98493.00;5008695;28;20133;-57
2022/11/13 02:07:49;;;;;;;21.73;12.55;;;;;;;8.25;100.00;98491.53;5008490;28;20128;-55
2022/11/13 02:10:16;;;;;;;17.05;9.90;;;;;;;8.20;100.00;98488.91;5007473;28;20061;-54
2022/11/13 02:12:47;;;;;;;15.45;8.88;;;;;;;8.11;100.00;98495.53;5008893;28;20050;-54
2022/11/13 02:15:14;;;;;;;16.95;10.07;;;;;;;7.65;100.00;98444.34;5007134;28;20513;-54
2022/11/13 02:17:46;;;;;;;17.15;9.32;;;;;;;7.91;100.00;98496.91;5008531;28;20149;-55
2022/11/13 02:20:14;;;;;;;16.23;10.02;;;;;;;7.87;100.00;98495.09;5008684;28;20202;-55
2022/11/13 02:22:55;;;;;;;16.50;9.52;;;;;;;7.86;100.00;98496.19;5008618;28;20115;-54
2022/11/13 02:25:24;;;;;;;17.35;9.85;;;;;;;7.85;100.00;98489.06;5007218;28;20049;-54
2022/11/13 02:27:51;;;;;;;21.40;9.38;;;;;;;7.80;100.00;98490.03;5008533;28;20085;-63
2022/11/13 02:30:21;;;;;;;18.27;9.00;;;;;;;7.39;100.00;98454.44;5007161;28;20081;-54
2022/11/13 02:32:54;;;;;;;20.23;9.50;;;;;;;7.56;100.00;98484.03;5006929;28;20414;-63
2022/11/13 02:35:25;;;;;;;14.63;9.32;;;;;;;7.42;100.00;98495.16;5022955;28;20092;-55
2022/11/13 02:37:54;;;;;;;16.63;9.50;;;;;;;7.34;100.00;98492.34;5007943;28;20088;-54
2022/11/13 02:40:22;;;;;;;14.80;9.07;;;;;;;6.55;100.00;98369.25;5008063;28;20300;-56
2022/11/13 02:42:49;;;;;;;15.82;9.38;;;;;;;7.18;100.00;98500.19;5007790;28;20144;-57
2022/11/13 02:45:16;;;;;;;16.15;8.10;;;;;;;7.17;100.00;98497.72;5006318;28;20528;-55
2022/11/13 02:47:42;;;;;;;19.98;8.52;;;;;;;7.13;100.00;98488.44;5008156;28;20149;-62
2022/11/13 02:50:10;;;;;;;14.30;7.20;;;;;;;7.14;100.00;98499.19;5006580;28;20143;-54
2022/11/13 02:52:36;;;;;;;24.38;12.88;;;;;;;7.20;100.00;98486.91;5008172;28;20136;-62
2022/11/13 02:55:04;;;;;;;15.48;8.10;;;;;;;7.22;100.00;98495.66;5007987;28;20053;-55
2022/11/13 02:57:31;;;;;;;15.50;9.02;;;;;;;7.22;100.00;98476.38;5008026;28;20105;-56
2022/11/13 02:59:58;;;;;;;14.45;8.13;;;;;;;7.41;100.00;98492.72;5007514;28;20085;-63
2022/11/13 03:02:25;;;;;;;15.93;7.50;;;;;;;7.44;100.00;98498.44;5008019;28;20128;-56
2022/11/13 03:04:51;;;;;;;15.88;8.00;;;;;;;7.50;100.00;98501.84;5007408;28;20141;-63
2022/11/13 03:07:38;;;;;;;12.65;8.77;;;;;;;7.50;100.00;98502.69;5007340;28;20177;-63
2022/11/13 03:10:05;;;;;;;14.15;8.18;;;;;;;7.65;100.00;98494.00;5006898;28;20086;-56
2022/11/13 03:12:32;;;;;;;14.55;7.90;;;;;;;7.42;100.00;98469.53;5007988;28;20138;-58
2022/11/13 03:14:59;;;;;;;16.83;7.60;;;;;;;7.69;100.00;98514.31;5006049;28;20154;-57
2022/11/13 03:17:25;;;;;;;12.82;7.90;;;;;;;7.41;100.00;98449.41;5007790;28;20489;-63
2022/11/13 03:19:52;;;;;;;12.20;7.75;;;;;;;7.82;100.00;98504.31;5007291;28;20148;-63
2022/11/13 03:22:18;;;;;;;11.80;7.22;;;;;;;7.87;100.00;98528.19;5007551;28;20154;-63
2022/11/13 03:24:45;;;;;;;15.70;7.57;;;;;;;7.93;100.00;98502.09;5007264;28;20505;-56
2022/11/13 03:27:12;;;;;;;15.75;8.30;;;;;;;7.91;100.00;98507.09;5007461;28;20137;-62
2022/11/13 03:29:38;;;;;;;14.80;8.55;;;;;;;8.10;100.00;98502.97;5022092;28;20096;-55
2022/11/13 03:32:05;;;;;;;12.15;7.75;;;;;;;8.17;100.00;98506.09;5007044;28;20081;-55
2022/11/13 03:34:31;;;;;;;13.43;7.85;;;;;;;8.16;100.00;98498.94;5006099;28;20576;-54
2022/11/13 03:36:58;;;;;;;11.95;7.32;;;;;;;8.20;100.00;98493.59;5022115;28;20493;-63
2022/11/13 03:39:25;;;;;;;14.10;7.55;;;;;;;8.27;100.00;98505.00;5007200;28;20262;-62
2022/11/13 03:41:51;;;;;;;20.02;9.60;;;;;;;8.23;100.00;98493.00;5006843;28;20112;-58
2022/11/13 03:44:18;;;;;;;23.58;10.73;;;;;;;8.26;100.00;98495.13;5006751;28;20545;-55
2022/11/13 03:46:44;;;;;;;28.15;11.10;;;;;;;7.27;100.00;98332.94;5006977;28;21122;-55
2022/11/13 03:49:11;;;;;;;22.27;10.77;;;;;;;8.03;100.00;98465.94;5006926;28;20077;-63
2022/11/13 03:51:38;;;;;;;26.58;12.07;;;;;;;8.04;100.00;98467.56;5006950;28;20101;-62
2022/11/13 03:54:04;;;;;;;17.75;9.57;;;;;;;8.27;100.00;98494.78;5006420;28;20159;-62
2022/11/13 03:56:31;;;;;;;17.25;9.15;;;;;;;8.20;100.00;98488.09;5006886;28;20081;-54
2022/11/13 03:58:57;;;;;;;18.48;10.38;;;;;;;8.19;100.00;98487.25;5006796;28;20070;-63
2022/11/13 04:01:24;;;;;;;14.65;8.60;;;;;;;8.31;100.00;98490.28;5005073;28;20089;-63
2022/11/13 04:03:50;;;;;;;13.35;8.90;;;;;;;8.41;100.00;98497.44;5007005;28;20153;-63
2022/11/13 04:06:17;;;;;;;12.57;8.75;;;;;;;8.32;100.00;98491.88;5006524;28;20133;-63
2022/11/13 04:08:44;;;;;;;11.68;7.15;;;;;;;8.20;100.00;98482.56;5006309;28;20081;-62
2022/11/13 04:11:11;;;;;;;10.52;7.30;;;;;;;8.19;100.00;98486.47;5006413;28;20053;-57
2022/11/13 04:13:38;;;;;;;11.45;7.13;;;;;;;8.18;100.00;98480.13;5006232;28;20141;-63
2022/11/13 04:16:05;;;;;;;11.18;7.20;;;;;;;8.21;100.00;98492.47;5006426;28;20080;-56
2022/11/13 04:18:32;;;;;;;12.60;7.47;;;;;;;8.23;100.00;98493.00;5006416;28;20058;-63
2022/11/13 04:21:01;;;;;;;18.77;9.55;;;;;;;8.15;100.00;98474.44;5004229;28;20603;-55
2022/11/13 04:23:28;;;;;;;15.90;9.70;;;;;;;8.38;100.00;98495.31;5005689;28;20081;-63
2022/11/13 04:25:54;;;;;;;16.15;10.20;;;;;;;8.33;100.00;98492.72;5004706;28;20060;-63
2022/11/13 04:28:21;;;;;;;19.52;8.80;;;;;;;8.30;100.00;98490.59;5005892;28;20127;-57
2022/11/13 04:30:52;;;;;;;11.80;7.88;;;;;;;8.37;100.00;98488.16;5006268;28;20053;-55
2022/11/13 04:33:19;;;;;;;13.10;9.38;;;;;;;8.41;100.00;98494.69;5006014;28;20529;-63
2022/11/13 04:35:47;;;;;;;18.00;9.95;;;;;;;8.39;100.00;98492.25;5005887;28;20136;-57
2022/11/13 04:38:14;;;;;;;16.60;10.23;;;;;;;8.34;100.00;98500.69;5006342;28;20046;-55
2022/11/13 04:40:41;;;;;;;15.98;9.25;;;;;;;8.24;100.00;98492.69;5006415;28;20686;-55
2022/11/13 04:43:08;;;;;;;12.93;7.75;;;;;;;8.37;100.00;98499.22;5004591;28;20560;-57
2022/11/13 04:45:35;;;;;;;11.15;7.90;;;;;;;8.43;100.00;98503.44;5006048;28;20180;-54
2022/11/13 04:48:02;;;;;;;17.05;8.55;;;;;;;8.56;100.00;98497.81;5006246;28;20156;-55
2022/11/13 04:50:29;;;;;;;13.55;8.80;;;;;;;8.19;100.00;98454.13;5005634;28;20603;-57
2022/11/13 04:52:55;;;;;;;14.30;9.88;;;;;;;8.56;100.00;98502.50;5005745;28;20417;-55
2022/11/13 04:55:22;;;;;;;12.80;9.30;;;;;;;8.62;100.00;98509.50;4991262;28;20180;-56
2022/11/13 04:57:50;;;;;;;17.17;10.30;;;;;;;8.39;100.00;98464.63;4981905;28;20061;-64
2022/11/13 05:00:17;;;;;;;26.08;12.45;;;;;;;8.79;100.00;98502.06;4992182;28;20487;-64
2022/11/13 05:02:44;;;;;;;20.58;12.75;;;;;;;8.86;100.00;98505.16;5003395;28;20145;-63
2022/11/13 05:05:10;;;;;;;27.40;17.23;;;;;;;8.37;100.00;98428.25;4993362;28;20135;-63
2022/11/13 05:07:37;;;;;;;23.05;14.98;;;;;;;8.91;100.00;98504.19;4989283;28;20141;-54
2022/11/13 05:10:05;;;;;;;23.42;14.93;;;;;;;8.82;100.00;98490.34;5012097;28;20089;-64
2022/11/13 05:12:31;;;;;;;24.42;14.85;;;;;;;8.90;100.00;98513.59;5020497;28;20132;-55
2022/11/13 05:14:58;;;;;;;23.75;16.65;;;;;;;8.81;100.00;98485.16;5003991;28;20092;-63
2022/11/13 05:17:24;;;;;;;23.67;17.02;;;;;;;8.40;100.00;98421.25;5005030;28;20137;-54
2022/11/13 05:19:51;;;;;;;20.80;14.32;;;;;;;9.03;100.00;98512.66;5004050;28;20137;-58
2022/11/13 05:22:17;;;;;;;19.48;12.57;;;;;;;8.96;100.00;98523.38;5003884;28;20116;-55
2022/11/13 05:24:44;;;;;;;22.15;14.30;;;;;;;8.95;100.00;98521.75;5004929;28;20509;-64
2022/11/13 05:27:11;;;;;;;16.88;11.27;;;;;;;8.68;100.00;98484.16;5003829;28;20128;-57
2022/11/13 05:29:43;;;;;;;14.77;8.93;;;;;;;8.88;100.00;98521.44;5004117;28;20049;-64
2022/11/13 05:32:09;;;;;;;15.23;8.93;;;;;;;8.83;100.00;98525.16;4312698;28;5001974;-64
2022/11/13 05:34:36;;;;;;;14.18;8.75;;;;;;;8.77;100.00;98503.53;5005058;28;20611;-64
2022/11/13 05:37:02;;;;;;;13.73;9.25;;;;;;;8.98;100.00;98526.63;5005602;28;20133;-64
2022/11/13 05:39:29;;;;;;;15.32;9.23;;;;;;;9.04;100.00;98519.81;5005264;28;20054;-64
2022/11/13 05:41:55;;;;;;;19.08;10.93;;;;;;;9.08;100.00;98524.38;5005073;28;20140;-54
2022/11/13 05:44:22;;;;;;;15.63;10.25;;;;;;;9.21;100.00;98536.41;5005063;28;20080;-56
2022/11/13 05:46:49;;;;;;;21.65;12.38;;;;;;;8.90;100.00;98469.38;5005076;28;20143;-55
2022/11/13 05:49:15;;;;;;;15.90;10.20;;;;;;;9.13;100.00;98496.56;5004728;28;20058;-55
2022/11/13 05:51:42;;;;;;;16.73;10.60;;;;;;;9.27;100.00;98529.56;5003533;28;20057;-64
2022/11/13 05:54:10;;;;;;;19.60;11.77;;;;;;;9.35;100.00;98533.47;5004655;28;20101;-57
2022/11/13 05:56:36;;;;;;;19.08;12.82;;;;;;;9.36;99.98;98526.81;5003380;28;20844;-54
2022/11/13 05:59:03;;;;;;;17.58;10.65;;;;;;;9.24;100.00;98524.69;5004952;28;20477;-63
2022/11/13 06:01:36;;;;;;;13.13;8.77;;;;;;;9.27;100.00;98523.22;5005060;28;20498;-55
2022/11/13 06:04:04;;;;;;;12.65;8.85;;;;;;;9.39;100.00;98524.19;5004840;28;20057;-55
2022/11/13 06:06:31;;;;;;;17.52;11.32;;;;;;;9.35;100.00;98531.53;5004716;28;20085;-65
2022/11/13 06:09:00;;;;;;;20.70;13.00;;;;;;;8.81;100.00;98425.19;5019738;28;20081;-64
2022/11/13 06:11:28;;;;;;;116.15;55.45;;;;;;;9.69;99.75;98525.94;5004557;28;20052;-57
2022/11/13 06:13:56;;;;;;;65.43;33.22;;;;;;;9.62;99.50;98514.56;5019979;28;20050;-62
2022/11/13 06:16:29;;;;;;;58.78;32.65;;;;;;;9.68;100.00;98527.09;5004719;28;20139;-66
2022/11/13 06:18:57;;;;;;;55.65;33.85;;;;;;;9.79;100.00;98531.13;5004664;28;20127;-64
2022/11/13 06:21:28;;;;;;;30.23;17.35;;;;;;;9.77;100.00;98522.34;5004445;28;20604;-65
2022/11/13 06:24:00;;;;;;;38.20;21.70;;;;;;;9.92;100.00;98519.06;5004826;28;20053;-55
2022/11/13 06:26:29;;;;;;;40.03;23.38;;;;;;;9.96;100.00;98514.47;5004355;28;20619;-65
2022/11/13 06:28:56;;;;;;;54.03;31.27;;;;;;;10.23;99.63;98524.34;5004511;28;20050;-65
2022/11/13 06:31:25;;;;;;;55.60;33.65;;;;;;;10.31;99.52;98527.09;5004467;28;20054;-55
2022/11/13 06:33:53;;;;;;;47.45;31.00;;;;;;;10.50;98.08;98532.22;5004674;28;20498;-65
2022/11/13 06:36:23;;;;;;;47.88;30.90;;;;;;;10.53;97.77;98529.59;5004314;28;20066;-66
2022/11/13 06:38:50;;;;;;;31.42;19.70;;;;;;;10.55;97.16;98527.31;5004353;28;20602;-65
2022/11/13 06:41:20;;;;;;;30.23;20.20;;;;;;;10.68;96.23;98531.78;5004665;28;20081;-55
2022/11/13 06:43:47;;;;;;;33.47;20.55;;;;;;;10.63;95.90;98532.00;5004176;28;20554;-64
2022/11/13 06:46:20;;;;;;;35.55;21.20;;;;;;;10.58;95.39;98510.00;5007659;28;20157;-55
2022/11/13 06:48:47;;;;;;;31.33;19.48;;;;;;;10.85;95.51;98535.59;5008139;28;20527;-54
2022/11/13 06:51:17;;;;;;;30.17;19.27;;;;;;;11.06;94.12;98528.13;5007757;28;20178;-65
2022/11/13 06:53:44;;;;;;;29.35;18.13;;;;;;;11.14;94.72;98521.69;5007619;28;20085;-66
2022/11/13 06:56:11;;;;;;;27.33;17.02;;;;;;;11.28;94.55;98525.00;5007872;28;20104;-66
2022/11/13 06:58:38;;;;;;;28.48;16.85;;;;;;;11.41;93.10;98518.38;5023233;28;20120;-55
2022/11/13 07:01:14;;;;;;;21.70;15.23;;;;;;;11.50;92.36;98533.81;5007807;28;20065;-66
2022/11/13 07:03:41;;;;;;;20.58;11.07;;;;;;;11.59;92.12;98523.44;5007564;28;20093;-65
2022/11/13 07:06:13;;;;;;;17.48;11.10;;;;;;;11.49;91.21;98500.84;5006911;28;20089;-66
2022/11/13 07:08:41;;;;;;;20.40;13.05;;;;;;;11.74;91.01;98522.03;5007824;28;20536;-65
2022/11/13 07:11:15;;;;;;;35.65;20.77;;;;;;;11.84;89.35;98518.78;5022642;28;20085;-65
2022/11/13 07:13:42;;;;;;;38.33;23.00;;;;;;;11.83;88.87;98506.06;5007665;28;20054;-55
2022/11/13 07:16:10;;;;;;;39.60;22.60;;;;;;;11.86;89.27;98499.84;5007785;28;20073;-55
2022/11/13 07:18:53;;;;;;;36.53;23.35;;;;;;;11.64;89.23;98476.06;5007414;28;20069;-54
2022/11/13 07:21:20;;;;;;;25.48;17.35;;;;;;;11.55;87.76;98432.88;5007685;28;20092;-58
2022/11/13 07:23:48;;;;;;;16.05;11.90;;;;;;;12.11;86.33;98518.16;5007106;28;20582;-65
2022/11/13 07:26:15;;;;;;;19.50;13.70;;;;;;;12.06;86.95;98521.97;5007520;28;20065;-65
2022/11/13 07:28:42;;;;;;;23.60;13.68;;;;;;;11.96;87.83;98510.50;5007342;28;20077;-65
2022/11/13 07:31:11;;;;;;;33.70;21.67;;;;;;;11.93;88.46;98516.75;5007298;28;20049;-55
2022/11/13 07:33:37;;;;;;;37.05;25.10;;;;;;;11.89;88.70;98504.69;5006859;28;20085;-55
2022/11/13 07:36:05;;;;;;;35.88;23.95;;;;;;;11.93;89.47;98511.19;5007130;28;20064;-55
2022/11/13 07:38:31;;;;;;;33.10;23.38;;;;;;;11.85;90.17;98498.22;5022030;28;20073;-55
2022/11/13 07:40:59;;;;;;;27.60;19.15;;;;;;;11.78;91.20;98500.72;5006651;28;20088;-55
2022/11/13 07:43:26;;;;;;;23.23;15.77;;;;;;;11.86;92.44;98503.44;5006865;28;20089;-66
2022/11/13 07:45:56;;;;;;;24.55;16.42;;;;;;;11.92;92.52;98504.00;5006664;28;20139;-55
2022/11/13 07:48:22;;;;;;;31.50;19.60;;;;;;;11.97;92.82;98495.47;5006822;28;20082;-64
2022/11/13 07:50:50;;;;;;;24.55;18.05;;;;;;;12.09;93.08;98495.50;5006574;28;20132;-54
2022/11/13 07:53:17;;;;;;;33.55;20.70;;;;;;;12.10;91.02;98477.66;5021369;28;20514;-65
2022/11/13 07:55:45;;;;;;;38.33;25.05;;;;;;;12.11;91.23;98476.50;5005997;28;20128;-55
2022/11/13 07:58:11;;;;;;;36.40;20.42;;;;;;;12.26;91.12;98491.69;5006612;28;20050;-64
2022/11/13 08:00:38;;;;;;;34.00;21.95;;;;;;;12.27;90.64;98480.22;5006622;28;20082;-64
2022/11/13 08:03:07;;;;;;;33.35;20.45;;;;;;;12.08;90.82;98443.88;5006368;28;20444;-57
2022/11/13 08:05:34;;;;;;;31.38;20.80;;;;;;;12.40;90.62;98487.41;5006012;28;20086;-65
2022/11/13 08:08:01;;;;;;;33.85;22.27;;;;;;;12.38;90.43;98484.16;5006360;28;21029;-65
2022/11/13 08:10:28;;;;;;;41.38;26.27;;;;;;;12.37;90.28;98488.13;5006439;28;20081;-64
2022/11/13 08:13:00;;;;;;;53.17;32.53;;;;;;;12.42;90.43;98485.13;5006367;28;20084;-65
2022/11/13 08:15:28;;;;;;;49.08;29.35;;;;;;;12.51;90.71;98483.03;5006267;28;20060;-58
2022/11/13 08:17:59;;;;;;;36.85;25.88;;;;;;;12.93;89.72;98484.34;5006076;28;20073;-54
2022/11/13 08:20:27;;;;;;;30.25;19.27;;;;;;;13.28;86.58;98463.19;5005850;28;20485;-65
2022/11/13 08:22:59;;;;;;;27.73;19.65;;;;;;;13.87;85.46;98479.16;5006071;28;20123;-57
2022/11/13 08:25:27;;;;;;;26.73;18.45;;;;;;;14.26;81.81;98481.03;5006086;28;20054;-55
2022/11/13 08:27:54;;;;;;;20.92;16.25;;;;;;;14.65;78.12;98480.03;5004901;28;20123;-55
2022/11/13 08:30:23;;;;;;;15.82;11.50;;;;;;;14.88;73.59;98478.19;5005870;28;20588;-65
2022/11/13 08:32:50;;;;;;;17.27;12.10;;;;;;;15.04;72.91;98478.97;5005834;28;20520;-65
2022/11/13 08:35:17;;;;;;;11.82;8.85;;;;;;;14.90;69.35;98482.25;5006034;28;20046;-66
2022/11/13 08:37:46;;;;;;;11.23;9.00;;;;;;;14.72;68.93;98477.41;5006097;28;20487;-55
2022/11/13 08:40:13;;;;;;;7.38;6.68;;;;;;;14.23;67.79;98406.47;5005847;28;20078;-56
2022/11/13 08:42:39;;;;;;;12.48;8.65;;;;;;;14.55;67.74;98477.78;5005782;28;20096;-56
2022/11/13 08:45:07;;;;;;;8.23;6.80;;;;;;;14.58;67.52;98471.47;5005804;28;20088;-54
2022/11/13 08:47:35;;;;;;;8.23;6.82;;;;;;;14.40;66.99;98464.69;5005564;28;20156;-64
2022/11/13 08:50:02;;;;;;;11.60;8.00;;;;;;;14.07;69.45;98483.72;5005828;28;20100;-58
2022/11/13 08:52:29;;;;;;;14.38;9.32;;;;;;;14.44;70.37;98479.50;5006029;28;20467;-55
2022/11/13 08:54:56;;;;;;;10.27;7.57;;;;;;;14.71;67.38;98473.00;5005401;28;20141;-64
2022/11/13 08:57:22;;;;;;;10.55;8.02;;;;;;;14.37;67.89;98482.91;5005600;28;20108;-55
2022/11/13 08:59:49;;;;;;;10.68;8.38;;;;;;;14.62;68.62;98484.34;5006063;28;20054;-58
2022/11/13 09:02:16;;;;;;;12.48;9.23;;;;;;;14.75;69.60;98483.06;5005068;28;20057;-55
2022/11/13 09:04:43;;;;;;;10.40;8.25;;;;;;;15.12;69.10;98477.94;5005174;28;20316;-57
2022/11/13 09:07:10;;;;;;;11.98;9.10;;;;;;;15.31;68.24;98463.19;5005317;28;20056;-58
2022/11/13 09:09:37;;;;;;;11.50;8.88;;;;;;;15.41;66.93;98466.25;5005317;28;20050;-56
2022/11/13 09:12:03;;;;;;;12.23;8.75;;;;;;;15.27;65.04;98407.28;5005497;28;20088;-55
2022/11/13 09:14:30;;;;;;;10.38;9.25;;;;;;;15.80;64.57;98453.88;5020211;28;20137;-55
2022/11/13 09:16:57;;;;;;;12.48;9.07;;;;;;;16.00;65.70;98454.63;5020077;28;20560;-65
2022/11/13 09:19:23;;;;;;;11.70;9.23;;;;;;;16.38;64.14;98441.34;5020231;28;20073;-64
2022/11/13 09:21:51;;;;;;;12.60;9.23;;;;;;;15.98;61.63;98446.59;5005261;28;20101;-56
2022/11/13 09:24:17;;;;;;;14.45;9.73;;;;;;;16.09;63.12;98405.66;5005123;28;20089;-65
2022/11/13 09:26:44;;;;;;;14.52;9.50;;;;;;;16.58;60.98;98442.88;5019934;28;20133;-65
2022/11/13 09:29:10;;;;;;;15.55;9.45;;;;;;;16.69;61.51;98439.47;5020219;28;20133;-57
2022/11/13 09:31:39;;;;;;;15.32;10.23;;;;;;;15.93;63.88;98438.53;5004834;28;21133;-55
2022/11/13 09:34:07;;;;;;;12.00;9.40;;;;;;;16.29;63.01;98435.19;5004900;28;20053;-57
2022/11/13 09:36:34;;;;;;;10.63;8.10;;;;;;;16.43;61.92;98435.44;5019961;28;20077;-56
2022/11/13 09:39:01;;;;;;;13.95;9.30;;;;;;;16.63;61.91;98429.78;5004970;28;20337;-64
2022/11/13 09:41:55;;;;;;;12.18;8.63;;;;;;;16.95;60.48;98417.03;5005046;28;20492;-55
2022/11/13 09:44:21;;;;;;;11.13;8.73;;;;;;;16.96;60.47;98407.47;5004751;28;20150;-66
2022/11/13 09:46:50;;;;;;;9.50;8.50;;;;;;;17.04;61.05;98414.78;5004852;28;20145;-64
2022/11/13 09:49:22;;;;;;;11.05;8.25;;;;;;;16.72;61.29;98407.91;5002885;28;20133;-56
2022/11/13 09:51:55;;;;;;;9.63;8.43;;;;;;;16.79;61.69;98402.44;5024258;28;20095;-56
2022/11/13 09:54:22;;;;;;;12.85;8.13;;;;;;;17.04;60.06;98400.78;5024084;28;20119;-55
2022/11/13 09:57:09;;;;;;;10.25;8.70;;;;;;;16.27;61.50;98362.03;5024738;28;20136;-54
2022/11/13 09:59:55;;;;;;;10.15;8.55;;;;;;;16.24;59.90;98399.16;5024124;28;20096;-54
2022/11/13 10:02:28;;;;;;;12.85;8.55;;;;;;;16.32;60.51;98400.88;5023070;28;20092;-55
2022/11/13 10:05:39;;;;;;;9.80;8.23;;;;;;;16.29;59.73;98396.03;5024515;28;20188;-64
2022/11/13 10:08:17;;;;;;;12.38;9.13;;;;;;;15.71;62.29;98391.81;5018374;28;20132;-58
2022/11/13 10:10:51;;;;;;;11.90;9.45;;;;;;;15.93;62.44;98393.00;5022830;28;20081;-55
2022/11/13 10:13:31;;;;;;;13.60;9.38;;;;;;;15.12;63.27;98324.44;5024366;28;20057;-67
2022/11/13 10:16:23;;;;;;;10.48;8.98;;;;;;;16.02;61.97;98374.81;5022946;28;20168;-55
2022/11/13 10:18:55;;;;;;;10.32;7.45;;;;;;;15.71;61.23;98324.75;5022520;28;20104;-56
2022/11/13 10:21:36;;;;;;;12.32;9.10;;;;;;;15.53;62.23;98334.81;5027483;28;20088;-67
2022/11/13 10:24:14;;;;;;;12.38;8.60;;;;;;;15.88;61.99;98373.75;5026709;28;20053;-55
2022/11/13 10:26:41;;;;;;;11.07;8.45;;;;;;;15.76;61.54;98371.94;5026478;28;20116;-66
2022/11/13 10:29:14;;;;;;;13.60;8.45;;;;;;;15.72;61.51;98353.50;5027256;28;20507;-56
2022/11/13 10:31:48;;;;;;;12.33;8.30;;;;;;;15.85;60.40;98375.31;5028293;28;20111;-56
2022/11/13 10:34:15;;;;;;;9.70;7.82;;;;;;;15.81;61.06;98363.25;5026453;28;20534;-66
2022/11/13 10:37:13;;;;;;;15.23;9.48;;;;;;;15.94;61.42;98356.31;5028178;28;20088;-67
2022/11/13 10:39:42;;;;;;;10.30;7.93;;;;;;;16.05;60.87;98360.09;5026690;28;20159;-55
2022/11/13 10:42:26;;;;;;;13.50;9.25;;;;;;;15.71;60.57;98291.22;5027835;28;20084;-66
2022/11/13 10:44:56;;;;;;;14.15;9.60;;;;;;;16.09;61.87;98352.56;5028004;28;20507;-55
2022/11/13 10:47:26;;;;;;;11.88;8.90;;;;;;;16.25;59.96;98350.41;5027526;28;20104;-56
2022/11/13 10:50:20;;;;;;;14.70;10.55;;;;;;;16.41;60.85;98344.66;5026408;28;20057;-67
2022/11/13 10:52:49;;;;;;;13.73;10.63;;;;;;;16.50;60.39;98336.88;5027426;28;20088;-66
2022/11/13 10:55:37;;;;;;;13.52;9.70;;;;;;;16.56;61.08;98338.97;5027578;28;20138;-56
2022/11/13 10:58:13;;;;;;;13.98;8.80;;;;;;;16.39;58.89;98345.03;5027371;28;20535;-66
2022/11/13 11:00:43;;;;;;;13.10;8.63;;;;;;;16.11;60.03;98299.88;5027780;28;20140;-56
2022/11/13 11:03:15;;;;;;;10.93;9.02;;;;;;;16.15;61.08;98272.78;5025906;28;20060;-66
2022/11/13 11:05:53;;;;;;;9.23;8.07;;;;;;;16.54;59.65;98324.53;5003052;28;20128;-67
2022/11/13 11:08:26;;;;;;;11.57;8.77;;;;;;;16.43;60.28;98320.75;5026973;28;20081;-55
2022/11/13 11:13:47;;;;;;;18.98;9.90;;;;;;;15.40;61.56;98230.06;5026892;28;20211;-54
2022/11/13 11:16:20;;;;;;;13.02;9.30;;;;;;;15.78;63.01;98308.13;5026997;28;20503;-57
2022/11/13 11:18:59;;;;;;;13.13;8.88;;;;;;;15.33;63.32;98310.06;5026409;28;20069;-67
2022/11/13 11:21:32;;;;;;;11.52;10.15;;;;;;;15.02;65.26;98308.25;5027112;28;20483;-66
2022/11/13 11:24:10;;;;;;;33.08;16.67;;;;;;;15.21;65.84;98305.44;5025343;28;20504;-55
2022/11/13 11:27:04;;;;;;;15.60;10.50;;;;;;;15.44;65.72;98297.97;5026620;28;20110;-65
2022/11/13 11:29:31;;;;;;;15.13;10.38;;;;;;;15.57;65.54;98290.19;5027067;28;20156;-66
2022/11/13 11:32:18;;;;;;;14.82;9.55;;;;;;;15.72;65.37;98298.44;5026418;28;20077;-66
2022/11/13 11:35:07;;;;;;;19.58;12.38;;;;;;;15.86;63.63;98293.09;5026875;28;20145;-68